sensor_id;sensor_type;location;lat;lon;timestamp;P1;durP1;ratioP1;P2;durP2;ratioP2
61385;SDS011;47256;18.904;-99.054;2022-09-13T00:00:49;9.52;;;6.60;;
61385;SDS011;47256;18.904;-99.054;2022-09-13T00:03:17;10.20;;;6.63;;
61385;SDS011;47256;18.904;-99.054;2022-09-13T00:05:45;11.38;;;6.43;;
61385;SDS011;47256;18.904;-99.054;2022-09-13T00:08:13;12.20;;;6.85;;
61385;SDS011;47256;18.904;-99.054;2022-09-13T00:10:40;10.68;;;7.13;;
61385;SDS011;47256;18.904;-99.054;2022-09-13T00:13:09;12.70;;;7.32;;
61385;SDS011;47256;18.904;-99.054;2022-09-13T00:15:42;14.05;;;7.07;;
61385;SDS011;47256;18.904;-99.054;2022-09-13T00:18:15;11.95;;;6.18;;
61385;SDS011;47256;18.904;-99.054;2022-09-13T00:20:43;15.77;;;8.32;;
61385;SDS011;47256;18.904;-99.054;2022-09-13T00:23:11;10.23;;;6.40;;
61385;SDS011;47256;18.904;-99.054;2022-09-13T00:25:39;11.70;;;7.93;;
61385;SDS011;47256;18.904;-99.054;2022-09-13T00:28:06;16.15;;;8.25;;
61385;SDS011;47256;18.904;-99.054;2022-09-13T00:30:34;12.43;;;6.82;;
61385;SDS011;47256;18.904;-99.054;2022-09-13T00:33:02;14.73;;;7.40;;
61385;SDS011;47256;18.904;-99.054;2022-09-13T00:35:29;9.45;;;7.35;;
61385;SDS011;47256;18.904;-99.054;2022-09-13T00:37:59;8.70;;;7.43;;
61385;SDS011;47256;18.904;-99.054;2022-09-13T00:40:28;13.52;;;7.55;;
61385;SDS011;47256;18.904;-99.054;2022-09-13T00:42:55;13.65;;;7.63;;
61385;SDS011;47256;18.904;-99.054;2022-09-13T00:45:23;14.73;;;8.35;;
61385;SDS011;47256;18.904;-99.054;2022-09-13T00:47:55;18.45;;;8.10;;
61385;SDS011;47256;18.904;-99.054;2022-09-13T00:50:30;8.50;;;6.90;;
61385;SDS011;47256;18.904;-99.054;2022-09-13T00:53:08;10.80;;;7.50;;
61385;SDS011;47256;18.904;-99.054;2022-09-13T00:55:49;10.27;;;6.88;;
61385;SDS011;47256;18.904;-99.054;2022-09-13T00:58:43;11.57;;;7.03;;
61385;SDS011;47256;18.904;-99.054;2022-09-13T01:01:19;8.75;;;6.88;;
61385;SDS011;47256;18.904;-99.054;2022-09-13T01:03:51;10.95;;;6.72;;
61385;SDS011;47256;18.904;-99.054;2022-09-13T01:06:21;11.18;;;7.32;;
61385;SDS011;47256;18.904;-99.054;2022-09-13T01:08:55;9.50;;;7.25;;
61385;SDS011;47256;18.904;-99.054;2022-09-13T01:11:46;9.02;;;7.60;;
61385;SDS011;47256;18.904;-99.054;2022-09-13T01:14:17;13.30;;;7.85;;
61385;SDS011;47256;18.904;-99.054;2022-09-13T01:16:47;8.70;;;7.80;;
61385;SDS011;47256;18.904;-99.054;2022-09-13T01:19:15;10.30;;;8.00;;
61385;SDS011;47256;18.904;-99.054;2022-09-13T01:36:22;9.98;;;7.78;;
61385;SDS011;47256;18.904;-99.054;2022-09-13T01:39:05;11.50;;;7.75;;
61385;SDS011;47256;18.904;-99.054;2022-09-13T01:44:29;11.77;;;7.70;;
61385;SDS011;47256;18.904;-99.054;2022-09-13T01:49:58;11.10;;;8.00;;
61385;SDS011;47256;18.904;-99.054;2022-09-13T01:55:39;11.27;;;8.52;;
61385;SDS011;47256;18.904;-99.054;2022-09-13T01:58:27;18.33;;;10.40;;
61385;SDS011;47256;18.904;-99.054;2022-09-13T02:03:48;13.82;;;10.30;;
61385;SDS011;47256;18.904;-99.054;2022-09-13T02:06:39;22.13;;;11.23;;
61385;SDS011;47256;18.904;-99.054;2022-09-13T02:09:37;22.33;;;11.00;;
61385;SDS011;47256;18.904;-99.054;2022-09-13T02:12:21;17.55;;;10.95;;
61385;SDS011;47256;18.904;-99.054;2022-09-13T02:14:57;24.42;;;11.75;;
61385;SDS011;47256;18.904;-99.054;2022-09-13T02:17:38;18.33;;;10.15;;
61385;SDS011;47256;18.904;-99.054;2022-09-13T02:20:20;19.50;;;9.77;;
61385;SDS011;47256;18.904;-99.054;2022-09-13T02:22:59;17.48;;;10.02;;
61385;SDS011;47256;18.904;-99.054;2022-09-13T02:25:32;14.55;;;10.23;;
61385;SDS011;47256;18.904;-99.054;2022-09-13T02:28:08;30.95;;;14.10;;
61385;SDS011;47256;18.904;-99.054;2022-09-13T02:30:44;22.08;;;10.65;;
61385;SDS011;47256;18.904;-99.054;2022-09-13T02:33:23;18.65;;;10.80;;
61385;SDS011;47256;18.904;-99.054;2022-09-13T02:36:12;20.02;;;9.95;;
61385;SDS011;47256;18.904;-99.054;2022-09-13T02:38:49;11.27;;;8.20;;
61385;SDS011;47256;18.904;-99.054;2022-09-13T02:44:10;12.10;;;9.30;;
61385;SDS011;47256;18.904;-99.054;2022-09-13T02:52:33;13.38;;;10.40;;
61385;SDS011;47256;18.904;-99.054;2022-09-13T02:55:24;20.63;;;11.07;;
61385;SDS011;47256;18.904;-99.054;2022-09-13T03:01:10;17.58;;;11.95;;
61385;SDS011;47256;18.904;-99.054;2022-09-13T03:03:39;24.38;;;14.27;;
61385;SDS011;47256;18.904;-99.054;2022-09-13T03:06:12;20.35;;;14.40;;
61385;SDS011;47256;18.904;-99.054;2022-09-13T03:08:50;23.75;;;14.48;;
61385;SDS011;47256;18.904;-99.054;2022-09-13T03:14:31;18.67;;;13.00;;
61385;SDS011;47256;18.904;-99.054;2022-09-13T03:17:25;19.90;;;13.63;;
61385;SDS011;47256;18.904;-99.054;2022-09-13T03:20:15;17.10;;;12.27;;
61385;SDS011;47256;18.904;-99.054;2022-09-13T03:23:17;19.45;;;13.93;;
61385;SDS011;47256;18.904;-99.054;2022-09-13T03:26:04;19.80;;;13.02;;
61385;SDS011;47256;18.904;-99.054;2022-09-13T03:28:57;22.00;;;12.38;;
61385;SDS011;47256;18.904;-99.054;2022-09-13T03:31:34;22.02;;;13.32;;
61385;SDS011;47256;18.904;-99.054;2022-09-13T03:40:35;19.73;;;11.88;;
61385;SDS011;47256;18.904;-99.054;2022-09-13T03:43:58;19.30;;;11.80;;
61385;SDS011;47256;18.904;-99.054;2022-09-13T03:46:07;16.92;;;10.73;;
61385;SDS011;47256;18.904;-99.054;2022-09-13T03:48:44;13.43;;;10.80;;
61385;SDS011;47256;18.904;-99.054;2022-09-13T03:51:13;15.20;;;10.60;;
61385;SDS011;47256;18.904;-99.054;2022-09-13T03:54:15;20.27;;;12.57;;
61385;SDS011;47256;18.904;-99.054;2022-09-13T03:56:42;15.18;;;11.80;;
61385;SDS011;47256;18.904;-99.054;2022-09-13T03:59:31;18.35;;;12.30;;
61385;SDS011;47256;18.904;-99.054;2022-09-13T04:02:00;19.30;;;12.52;;
61385;SDS011;47256;18.904;-99.054;2022-09-13T04:04:31;21.23;;;15.52;;
61385;SDS011;47256;18.904;-99.054;2022-09-13T04:07:00;15.95;;;14.25;;
61385;SDS011;47256;18.904;-99.054;2022-09-13T04:09:29;24.58;;;13.25;;
61385;SDS011;47256;18.904;-99.054;2022-09-13T04:11:56;14.30;;;12.43;;
61385;SDS011;47256;18.904;-99.054;2022-09-13T04:14:26;17.50;;;12.10;;
61385;SDS011;47256;18.904;-99.054;2022-09-13T04:16:53;18.23;;;10.23;;
61385;SDS011;47256;18.904;-99.054;2022-09-13T04:19:23;26.17;;;10.43;;
61385;SDS011;47256;18.904;-99.054;2022-09-13T04:21:51;16.80;;;9.50;;
61385;SDS011;47256;18.904;-99.054;2022-09-13T04:24:20;18.67;;;9.98;;
61385;SDS011;47256;18.904;-99.054;2022-09-13T04:26:50;16.48;;;9.68;;
61385;SDS011;47256;18.904;-99.054;2022-09-13T04:29:18;14.90;;;9.35;;
61385;SDS011;47256;18.904;-99.054;2022-09-13T04:31:47;14.65;;;9.40;;
61385;SDS011;47256;18.904;-99.054;2022-09-13T04:34:16;18.10;;;9.30;;
61385;SDS011;47256;18.904;-99.054;2022-09-13T04:36:44;12.35;;;8.85;;
61385;SDS011;47256;18.904;-99.054;2022-09-13T04:39:12;14.88;;;9.68;;
61385;SDS011;47256;18.904;-99.054;2022-09-13T04:41:40;14.52;;;9.70;;
61385;SDS011;47256;18.904;-99.054;2022-09-13T04:44:09;20.50;;;10.90;;
61385;SDS011;47256;18.904;-99.054;2022-09-13T04:46:37;12.40;;;10.77;;
61385;SDS011;47256;18.904;-99.054;2022-09-13T04:49:04;13.13;;;11.38;;
61385;SDS011;47256;18.904;-99.054;2022-09-13T04:51:32;13.75;;;10.90;;
61385;SDS011;47256;18.904;-99.054;2022-09-13T04:53:59;13.55;;;10.65;;
61385;SDS011;47256;18.904;-99.054;2022-09-13T04:56:27;19.15;;;11.15;;
61385;SDS011;47256;18.904;-99.054;2022-09-13T04:58:54;11.75;;;10.18;;
61385;SDS011;47256;18.904;-99.054;2022-09-13T05:01:22;14.05;;;9.68;;
61385;SDS011;47256;18.904;-99.054;2022-09-13T05:03:50;13.10;;;9.43;;
61385;SDS011;47256;18.904;-99.054;2022-09-13T05:06:24;11.52;;;9.13;;
61385;SDS011;47256;18.904;-99.054;2022-09-13T05:08:53;10.93;;;9.18;;
61385;SDS011;47256;18.904;-99.054;2022-09-13T05:11:21;13.68;;;9.57;;
61385;SDS011;47256;18.904;-99.054;2022-09-13T05:13:50;12.07;;;9.65;;
61385;SDS011;47256;18.904;-99.054;2022-09-13T05:16:20;12.88;;;9.23;;
61385;SDS011;47256;18.904;-99.054;2022-09-13T05:18:49;12.23;;;9.27;;
61385;SDS011;47256;18.904;-99.054;2022-09-13T05:21:17;21.92;;;9.15;;
61385;SDS011;47256;18.904;-99.054;2022-09-13T05:23:48;12.32;;;9.75;;
61385;SDS011;47256;18.904;-99.054;2022-09-13T05:26:17;17.02;;;10.65;;
61385;SDS011;47256;18.904;-99.054;2022-09-13T05:28:46;16.52;;;9.82;;
61385;SDS011;47256;18.904;-99.054;2022-09-13T05:31:18;14.02;;;9.38;;
61385;SDS011;47256;18.904;-99.054;2022-09-13T05:33:52;12.43;;;9.50;;
61385;SDS011;47256;18.904;-99.054;2022-09-13T05:36:21;15.23;;;10.02;;
61385;SDS011;47256;18.904;-99.054;2022-09-13T05:38:48;10.80;;;9.57;;
61385;SDS011;47256;18.904;-99.054;2022-09-13T05:41:19;17.80;;;8.85;;
61385;SDS011;47256;18.904;-99.054;2022-09-13T05:43:46;9.68;;;8.65;;
61385;SDS011;47256;18.904;-99.054;2022-09-13T05:46:14;11.55;;;9.38;;
61385;SDS011;47256;18.904;-99.054;2022-09-13T05:48:45;15.80;;;9.07;;
61385;SDS011;47256;18.904;-99.054;2022-09-13T05:51:14;16.27;;;9.88;;
61385;SDS011;47256;18.904;-99.054;2022-09-13T05:53:45;16.17;;;10.05;;
61385;SDS011;47256;18.904;-99.054;2022-09-13T05:56:15;12.73;;;9.27;;
61385;SDS011;47256;18.904;-99.054;2022-09-13T05:58:44;18.67;;;9.23;;
61385;SDS011;47256;18.904;-99.054;2022-09-13T06:01:18;15.10;;;9.60;;
61385;SDS011;47256;18.904;-99.054;2022-09-13T06:03:46;17.00;;;9.02;;
61385;SDS011;47256;18.904;-99.054;2022-09-13T06:06:15;20.45;;;9.48;;
61385;SDS011;47256;18.904;-99.054;2022-09-13T06:08:43;10.90;;;9.75;;
61385;SDS011;47256;18.904;-99.054;2022-09-13T06:11:12;12.20;;;9.45;;
61385;SDS011;47256;18.904;-99.054;2022-09-13T06:13:40;16.77;;;10.32;;
61385;SDS011;47256;18.904;-99.054;2022-09-13T06:16:09;12.82;;;9.63;;
61385;SDS011;47256;18.904;-99.054;2022-09-13T06:18:39;18.10;;;11.00;;
61385;SDS011;47256;18.904;-99.054;2022-09-13T06:21:07;17.95;;;10.88;;
61385;SDS011;47256;18.904;-99.054;2022-09-13T06:23:43;18.08;;;10.43;;
61385;SDS011;47256;18.904;-99.054;2022-09-13T06:26:16;12.52;;;9.98;;
61385;SDS011;47256;18.904;-99.054;2022-09-13T06:28:52;14.70;;;9.98;;
61385;SDS011;47256;18.904;-99.054;2022-09-13T06:31:24;12.70;;;10.35;;
61385;SDS011;47256;18.904;-99.054;2022-09-13T06:33:55;15.70;;;10.70;;
61385;SDS011;47256;18.904;-99.054;2022-09-13T06:36:25;11.43;;;9.70;;
61385;SDS011;47256;18.904;-99.054;2022-09-13T06:38:52;16.23;;;10.93;;
61385;SDS011;47256;18.904;-99.054;2022-09-13T06:41:20;12.43;;;9.50;;
61385;SDS011;47256;18.904;-99.054;2022-09-13T06:43:52;15.93;;;10.70;;
61385;SDS011;47256;18.904;-99.054;2022-09-13T06:48:54;14.15;;;11.23;;
61385;SDS011;47256;18.904;-99.054;2022-09-13T06:51:26;13.65;;;10.68;;
61385;SDS011;47256;18.904;-99.054;2022-09-13T06:53:59;15.20;;;10.52;;
61385;SDS011;47256;18.904;-99.054;2022-09-13T06:56:29;15.40;;;9.82;;
61385;SDS011;47256;18.904;-99.054;2022-09-13T06:58:58;16.40;;;11.70;;
61385;SDS011;47256;18.904;-99.054;2022-09-13T07:01:33;16.70;;;11.77;;
61385;SDS011;47256;18.904;-99.054;2022-09-13T07:04:08;13.70;;;10.95;;
61385;SDS011;47256;18.904;-99.054;2022-09-13T07:06:41;23.50;;;16.70;;
61385;SDS011;47256;18.904;-99.054;2022-09-13T07:09:11;33.13;;;15.45;;
61385;SDS011;47256;18.904;-99.054;2022-09-13T07:11:52;19.35;;;10.23;;
61385;SDS011;47256;18.904;-99.054;2022-09-13T07:14:23;13.63;;;10.35;;
61385;SDS011;47256;18.904;-99.054;2022-09-13T07:16:52;10.90;;;9.80;;
61385;SDS011;47256;18.904;-99.054;2022-09-13T07:19:20;14.00;;;10.70;;
61385;SDS011;47256;18.904;-99.054;2022-09-13T07:21:54;14.13;;;9.98;;
61385;SDS011;47256;18.904;-99.054;2022-09-13T07:24:22;16.05;;;10.13;;
61385;SDS011;47256;18.904;-99.054;2022-09-13T07:26:51;13.77;;;9.68;;
61385;SDS011;47256;18.904;-99.054;2022-09-13T07:29:19;14.05;;;10.20;;
61385;SDS011;47256;18.904;-99.054;2022-09-13T07:31:52;17.17;;;10.93;;
61385;SDS011;47256;18.904;-99.054;2022-09-13T07:34:23;12.55;;;9.70;;
61385;SDS011;47256;18.904;-99.054;2022-09-13T07:36:51;14.68;;;9.38;;
61385;SDS011;47256;18.904;-99.054;2022-09-13T07:39:21;15.20;;;9.40;;
61385;SDS011;47256;18.904;-99.054;2022-09-13T07:41:49;17.13;;;10.13;;
61385;SDS011;47256;18.904;-99.054;2022-09-13T07:44:18;14.98;;;10.18;;
61385;SDS011;47256;18.904;-99.054;2022-09-13T07:46:45;14.98;;;10.25;;
61385;SDS011;47256;18.904;-99.054;2022-09-13T07:49:13;12.70;;;11.32;;
61385;SDS011;47256;18.904;-99.054;2022-09-13T07:51:44;10.57;;;9.48;;
61385;SDS011;47256;18.904;-99.054;2022-09-13T07:54:16;55.88;;;35.00;;
61385;SDS011;47256;18.904;-99.054;2022-09-13T07:56:50;24.05;;;18.92;;
61385;SDS011;47256;18.904;-99.054;2022-09-13T07:59:17;13.68;;;10.82;;
61385;SDS011;47256;18.904;-99.054;2022-09-13T08:01:45;23.58;;;13.68;;
61385;SDS011;47256;18.904;-99.054;2022-09-13T08:04:15;18.38;;;10.90;;
61385;SDS011;47256;18.904;-99.054;2022-09-13T08:06:47;15.65;;;11.20;;
61385;SDS011;47256;18.904;-99.054;2022-09-13T08:09:14;17.45;;;10.65;;
61385;SDS011;47256;18.904;-99.054;2022-09-13T08:11:44;12.82;;;11.02;;
61385;SDS011;47256;18.904;-99.054;2022-09-13T08:14:16;17.77;;;11.20;;
61385;SDS011;47256;18.904;-99.054;2022-09-13T08:16:44;14.45;;;10.25;;
61385;SDS011;47256;18.904;-99.054;2022-09-13T08:19:13;12.98;;;9.63;;
61385;SDS011;47256;18.904;-99.054;2022-09-13T08:21:43;43.10;;;20.50;;
61385;SDS011;47256;18.904;-99.054;2022-09-13T08:24:15;34.17;;;18.75;;
61385;SDS011;47256;18.904;-99.054;2022-09-13T08:26:44;17.63;;;12.88;;
61385;SDS011;47256;18.904;-99.054;2022-09-13T08:29:12;15.52;;;10.60;;
61385;SDS011;47256;18.904;-99.054;2022-09-13T08:31:41;17.20;;;12.20;;
61385;SDS011;47256;18.904;-99.054;2022-09-13T08:34:12;12.88;;;9.90;;
61385;SDS011;47256;18.904;-99.054;2022-09-13T08:36:43;12.02;;;9.82;;
61385;SDS011;47256;18.904;-99.054;2022-09-13T08:39:10;13.02;;;10.40;;
61385;SDS011;47256;18.904;-99.054;2022-09-13T08:46:49;17.77;;;10.30;;
61385;SDS011;47256;18.904;-99.054;2022-09-13T08:49:25;13.60;;;10.13;;
61385;SDS011;47256;18.904;-99.054;2022-09-13T08:54:44;16.15;;;10.55;;
61385;SDS011;47256;18.904;-99.054;2022-09-13T08:57:31;12.38;;;10.18;;
61385;SDS011;47256;18.904;-99.054;2022-09-13T09:03:47;17.73;;;11.05;;
61385;SDS011;47256;18.904;-99.054;2022-09-13T09:06:13;16.70;;;10.07;;
61385;SDS011;47256;18.904;-99.054;2022-09-13T09:08:46;15.95;;;10.18;;
61385;SDS011;47256;18.904;-99.054;2022-09-13T09:22:18;14.85;;;10.43;;
61385;SDS011;47256;18.904;-99.054;2022-09-13T09:24:51;13.43;;;10.05;;
61385;SDS011;47256;18.904;-99.054;2022-09-13T09:27:21;23.08;;;11.35;;
61385;SDS011;47256;18.904;-99.054;2022-09-13T09:29:53;20.17;;;11.70;;
61385;SDS011;47256;18.904;-99.054;2022-09-13T09:35:51;11.88;;;10.57;;
61385;SDS011;47256;18.904;-99.054;2022-09-13T09:38:45;15.07;;;11.35;;
61385;SDS011;47256;18.904;-99.054;2022-09-13T09:41:20;14.55;;;10.98;;
61385;SDS011;47256;18.904;-99.054;2022-09-13T09:46:25;14.90;;;11.05;;
61385;SDS011;47256;18.904;-99.054;2022-09-13T09:49:03;21.92;;;11.50;;
61385;SDS011;47256;18.904;-99.054;2022-09-13T09:52:09;17.98;;;11.70;;
61385;SDS011;47256;18.904;-99.054;2022-09-13T09:54:43;18.77;;;12.57;;
61385;SDS011;47256;18.904;-99.054;2022-09-13T09:57:12;17.50;;;11.30;;
61385;SDS011;47256;18.904;-99.054;2022-09-13T09:59:41;13.38;;;11.18;;
61385;SDS011;47256;18.904;-99.054;2022-09-13T10:02:18;16.00;;;11.75;;
61385;SDS011;47256;18.904;-99.054;2022-09-13T10:04:56;15.23;;;10.90;;
61385;SDS011;47256;18.904;-99.054;2022-09-13T10:10:00;15.15;;;11.90;;
61385;SDS011;47256;18.904;-99.054;2022-09-13T10:12:37;18.98;;;11.93;;
61385;SDS011;47256;18.904;-99.054;2022-09-13T10:15:15;17.15;;;11.65;;
61385;SDS011;47256;18.904;-99.054;2022-09-13T10:18:30;18.40;;;12.02;;
61385;SDS011;47256;18.904;-99.054;2022-09-13T10:20:33;13.30;;;11.73;;
61385;SDS011;47256;18.904;-99.054;2022-09-13T10:23:34;13.68;;;10.75;;
61385;SDS011;47256;18.904;-99.054;2022-09-13T10:26:03;17.65;;;11.40;;
61385;SDS011;47256;18.904;-99.054;2022-09-13T10:28:35;18.42;;;11.80;;
61385;SDS011;47256;18.904;-99.054;2022-09-13T10:31:37;20.75;;;11.85;;
61385;SDS011;47256;18.904;-99.054;2022-09-13T10:34:10;17.45;;;11.45;;
61385;SDS011;47256;18.904;-99.054;2022-09-13T10:36:49;14.75;;;11.52;;
61385;SDS011;47256;18.904;-99.054;2022-09-13T10:39:30;19.33;;;11.48;;
61385;SDS011;47256;18.904;-99.054;2022-09-13T10:42:03;16.73;;;10.40;;
61385;SDS011;47256;18.904;-99.054;2022-09-13T10:47:12;17.80;;;11.60;;
61385;SDS011;47256;18.904;-99.054;2022-09-13T10:49:48;15.98;;;12.40;;
61385;SDS011;47256;18.904;-99.054;2022-09-13T10:52:23;13.57;;;11.20;;
61385;SDS011;47256;18.904;-99.054;2022-09-13T10:55:14;16.50;;;11.80;;
61385;SDS011;47256;18.904;-99.054;2022-09-13T11:00:20;17.95;;;12.25;;
61385;SDS011;47256;18.904;-99.054;2022-09-13T11:11:17;15.63;;;11.43;;
61385;SDS011;47256;18.904;-99.054;2022-09-13T11:31:41;17.40;;;13.45;;
61385;SDS011;47256;18.904;-99.054;2022-09-13T11:34:36;18.33;;;13.32;;
61385;SDS011;47256;18.904;-99.054;2022-09-13T11:39:58;21.23;;;12.85;;
61385;SDS011;47256;18.904;-99.054;2022-09-13T11:42:50;20.90;;;13.60;;
61385;SDS011;47256;18.904;-99.054;2022-09-13T11:45:48;20.00;;;13.32;;
61385;SDS011;47256;18.904;-99.054;2022-09-13T11:48:38;19.52;;;12.80;;
61385;SDS011;47256;18.904;-99.054;2022-09-13T11:51:27;19.85;;;12.57;;
61385;SDS011;47256;18.904;-99.054;2022-09-13T11:57:16;21.55;;;13.23;;
61385;SDS011;47256;18.904;-99.054;2022-09-13T11:59:56;27.67;;;14.38;;
61385;SDS011;47256;18.904;-99.054;2022-09-13T12:05:23;21.73;;;14.18;;
61385;SDS011;47256;18.904;-99.054;2022-09-13T12:08:09;22.10;;;14.38;;
61385;SDS011;47256;18.904;-99.054;2022-09-13T12:10:47;23.80;;;13.95;;
61385;SDS011;47256;18.904;-99.054;2022-09-13T12:13:28;32.65;;;14.65;;
61385;SDS011;47256;18.904;-99.054;2022-09-13T12:16:02;20.73;;;13.35;;
61385;SDS011;47256;18.904;-99.054;2022-09-13T12:18:39;21.23;;;14.40;;
61385;SDS011;47256;18.904;-99.054;2022-09-13T12:21:24;23.50;;;13.07;;
61385;SDS011;47256;18.904;-99.054;2022-09-13T12:24:06;23.45;;;12.95;;
61385;SDS011;47256;18.904;-99.054;2022-09-13T12:32:05;16.38;;;12.45;;
61385;SDS011;47256;18.904;-99.054;2022-09-13T12:34:49;26.05;;;13.48;;
61385;SDS011;47256;18.904;-99.054;2022-09-13T12:40:31;20.50;;;12.85;;
61385;SDS011;47256;18.904;-99.054;2022-09-13T13:00:17;19.48;;;13.13;;
61385;SDS011;47256;18.904;-99.054;2022-09-13T13:05:30;18.85;;;12.98;;
61385;SDS011;47256;18.904;-99.054;2022-09-13T13:08:05;21.88;;;13.75;;
61385;SDS011;47256;18.904;-99.054;2022-09-13T13:16:22;19.02;;;14.43;;
61385;SDS011;47256;18.904;-99.054;2022-09-13T13:18:51;22.17;;;14.93;;
61385;SDS011;47256;18.904;-99.054;2022-09-13T13:21:33;21.95;;;14.73;;
61385;SDS011;47256;18.904;-99.054;2022-09-13T13:34:44;25.67;;;14.88;;
61385;SDS011;47256;18.904;-99.054;2022-09-13T13:39:47;27.83;;;14.90;;
61385;SDS011;47256;18.904;-99.054;2022-09-13T13:42:35;27.58;;;16.27;;
61385;SDS011;47256;18.904;-99.054;2022-09-13T13:45:25;26.08;;;16.30;;
61385;SDS011;47256;18.904;-99.054;2022-09-13T13:48:05;23.25;;;16.55;;
61385;SDS011;47256;18.904;-99.054;2022-09-13T13:53:42;33.47;;;19.30;;
61385;SDS011;47256;18.904;-99.054;2022-09-13T13:56:21;33.67;;;19.63;;
61385;SDS011;47256;18.904;-99.054;2022-09-13T13:59:29;32.17;;;16.60;;
61385;SDS011;47256;18.904;-99.054;2022-09-13T14:02:01;25.10;;;17.05;;
61385;SDS011;47256;18.904;-99.054;2022-09-13T14:10:41;28.25;;;18.10;;
61385;SDS011;47256;18.904;-99.054;2022-09-13T14:24:42;40.65;;;20.00;;
61385;SDS011;47256;18.904;-99.054;2022-09-13T14:27:16;28.92;;;17.60;;
61385;SDS011;47256;18.904;-99.054;2022-09-13T14:29:51;34.67;;;19.20;;
61385;SDS011;47256;18.904;-99.054;2022-09-13T14:32:43;32.97;;;18.77;;
61385;SDS011;47256;18.904;-99.054;2022-09-13T14:40:51;25.80;;;18.15;;
61385;SDS011;47256;18.904;-99.054;2022-09-13T14:43:21;38.25;;;20.73;;
61385;SDS011;47256;18.904;-99.054;2022-09-13T14:45:57;30.95;;;20.10;;
61385;SDS011;47256;18.904;-99.054;2022-09-13T14:53:46;40.97;;;20.15;;
61385;SDS011;47256;18.904;-99.054;2022-09-13T14:59:25;30.63;;;21.08;;
61385;SDS011;47256;18.904;-99.054;2022-09-13T15:02:05;28.73;;;17.73;;
61385;SDS011;47256;18.904;-99.054;2022-09-13T15:04:40;24.00;;;17.60;;
61385;SDS011;47256;18.904;-99.054;2022-09-13T15:07:28;22.90;;;17.85;;
61385;SDS011;47256;18.904;-99.054;2022-09-13T15:13:06;24.05;;;17.15;;
61385;SDS011;47256;18.904;-99.054;2022-09-13T15:15:36;28.55;;;16.02;;
61385;SDS011;47256;18.904;-99.054;2022-09-13T15:20:50;23.20;;;16.65;;
61385;SDS011;47256;18.904;-99.054;2022-09-13T15:23:29;27.70;;;17.95;;
61385;SDS011;47256;18.904;-99.054;2022-09-13T15:26:08;21.55;;;16.83;;
61385;SDS011;47256;18.904;-99.054;2022-09-13T15:31:34;24.95;;;17.00;;
61385;SDS011;47256;18.904;-99.054;2022-09-13T15:36:44;28.00;;;18.75;;
61385;SDS011;47256;18.904;-99.054;2022-09-13T15:41:54;21.48;;;16.92;;
61385;SDS011;47256;18.904;-99.054;2022-09-13T15:44:27;30.83;;;17.35;;
61385;SDS011;47256;18.904;-99.054;2022-09-13T15:47:00;29.25;;;18.35;;
61385;SDS011;47256;18.904;-99.054;2022-09-13T15:49:34;35.75;;;18.88;;
61385;SDS011;47256;18.904;-99.054;2022-09-13T15:52:06;25.85;;;18.05;;
61385;SDS011;47256;18.904;-99.054;2022-09-13T15:54:36;24.42;;;17.92;;
61385;SDS011;47256;18.904;-99.054;2022-09-13T15:57:13;29.20;;;17.88;;
61385;SDS011;47256;18.904;-99.054;2022-09-13T15:59:49;24.13;;;18.63;;
61385;SDS011;47256;18.904;-99.054;2022-09-13T16:02:18;29.92;;;19.10;;
61385;SDS011;47256;18.904;-99.054;2022-09-13T16:04:47;26.30;;;19.25;;
61385;SDS011;47256;18.904;-99.054;2022-09-13T16:07:15;31.35;;;18.05;;
61385;SDS011;47256;18.904;-99.054;2022-09-13T16:09:43;34.63;;;19.40;;
61385;SDS011;47256;18.904;-99.054;2022-09-13T16:12:11;24.33;;;18.55;;
61385;SDS011;47256;18.904;-99.054;2022-09-13T16:14:39;25.15;;;19.15;;
61385;SDS011;47256;18.904;-99.054;2022-09-13T16:17:09;25.55;;;17.83;;
61385;SDS011;47256;18.904;-99.054;2022-09-13T16:19:47;22.95;;;19.50;;
61385;SDS011;47256;18.904;-99.054;2022-09-13T16:22:16;26.75;;;17.58;;
61385;SDS011;47256;18.904;-99.054;2022-09-13T16:24:45;28.20;;;16.73;;
61385;SDS011;47256;18.904;-99.054;2022-09-13T16:27:13;27.52;;;19.33;;
61385;SDS011;47256;18.904;-99.054;2022-09-13T16:29:42;23.17;;;15.93;;
61385;SDS011;47256;18.904;-99.054;2022-09-13T16:32:09;25.33;;;18.23;;
61385;SDS011;47256;18.904;-99.054;2022-09-13T16:34:36;25.38;;;18.55;;
61385;SDS011;47256;18.904;-99.054;2022-09-13T16:37:04;25.23;;;18.25;;
61385;SDS011;47256;18.904;-99.054;2022-09-13T16:39:31;24.10;;;17.48;;
61385;SDS011;47256;18.904;-99.054;2022-09-13T16:41:58;23.17;;;17.40;;
61385;SDS011;47256;18.904;-99.054;2022-09-13T16:44:26;21.48;;;18.80;;
61385;SDS011;47256;18.904;-99.054;2022-09-13T16:46:53;23.77;;;16.63;;
61385;SDS011;47256;18.904;-99.054;2022-09-13T16:49:21;43.20;;;19.02;;
61385;SDS011;47256;18.904;-99.054;2022-09-13T16:51:48;19.85;;;17.17;;
61385;SDS011;47256;18.904;-99.054;2022-09-13T16:54:19;21.35;;;16.95;;
61385;SDS011;47256;18.904;-99.054;2022-09-13T16:56:46;24.60;;;19.13;;
61385;SDS011;47256;18.904;-99.054;2022-09-13T16:59:14;21.42;;;17.65;;
61385;SDS011;47256;18.904;-99.054;2022-09-13T17:01:41;19.42;;;16.35;;
61385;SDS011;47256;18.904;-99.054;2022-09-13T17:04:08;22.20;;;17.95;;
61385;SDS011;47256;18.904;-99.054;2022-09-13T17:06:36;18.85;;;16.08;;
61385;SDS011;47256;18.904;-99.054;2022-09-13T17:09:06;26.88;;;17.45;;
61385;SDS011;47256;18.904;-99.054;2022-09-13T17:11:35;18.35;;;15.15;;
61385;SDS011;47256;18.904;-99.054;2022-09-13T17:14:05;22.98;;;18.88;;
61385;SDS011;47256;18.904;-99.054;2022-09-13T17:16:38;26.50;;;18.95;;
61385;SDS011;47256;18.904;-99.054;2022-09-13T17:19:19;30.23;;;17.30;;
61385;SDS011;47256;18.904;-99.054;2022-09-13T17:21:49;25.73;;;18.98;;
61385;SDS011;47256;18.904;-99.054;2022-09-13T17:24:17;23.90;;;19.05;;
61385;SDS011;47256;18.904;-99.054;2022-09-13T17:26:45;21.25;;;17.38;;
61385;SDS011;47256;18.904;-99.054;2022-09-13T17:29:14;23.23;;;20.05;;
61385;SDS011;47256;18.904;-99.054;2022-09-13T17:31:41;24.85;;;18.15;;
61385;SDS011;47256;18.904;-99.054;2022-09-13T17:34:09;21.90;;;19.23;;
61385;SDS011;47256;18.904;-99.054;2022-09-13T17:36:37;26.50;;;20.50;;
61385;SDS011;47256;18.904;-99.054;2022-09-13T17:39:05;23.15;;;17.73;;
61385;SDS011;47256;18.904;-99.054;2022-09-13T17:41:33;21.65;;;18.08;;
61385;SDS011;47256;18.904;-99.054;2022-09-13T17:44:01;21.88;;;18.10;;
61385;SDS011;47256;18.904;-99.054;2022-09-13T17:46:29;21.23;;;15.30;;
61385;SDS011;47256;18.904;-99.054;2022-09-13T17:48:57;20.95;;;17.85;;
61385;SDS011;47256;18.904;-99.054;2022-09-13T17:51:26;24.17;;;16.33;;
61385;SDS011;47256;18.904;-99.054;2022-09-13T17:53:55;22.60;;;18.67;;
61385;SDS011;47256;18.904;-99.054;2022-09-13T17:56:30;20.27;;;16.88;;
61385;SDS011;47256;18.904;-99.054;2022-09-13T17:59:09;21.13;;;15.93;;
61385;SDS011;47256;18.904;-99.054;2022-09-13T18:01:40;21.30;;;15.02;;
61385;SDS011;47256;18.904;-99.054;2022-09-13T18:04:10;22.73;;;17.83;;
61385;SDS011;47256;18.904;-99.054;2022-09-13T18:06:38;24.83;;;14.45;;
61385;SDS011;47256;18.904;-99.054;2022-09-13T18:09:08;21.73;;;16.77;;
61385;SDS011;47256;18.904;-99.054;2022-09-13T18:11:36;22.48;;;15.50;;
61385;SDS011;47256;18.904;-99.054;2022-09-13T18:14:29;19.98;;;15.00;;